Whitewood, South Dakota
Current Conditions -  °F | °C
As of 3:55 PM on Tuesday 25 Nov 2014 (Local Time) from KSPF Reporting Station
Broken Clouds Broken Clouds  
Wind Chill: 20°   Ceiling: 4100
Heat Index: 32°   Visibility: 10mi
Dew Point: 27°   Wind: 18mph
Humidity: 80%   Direction: 300°WNW
Pressure: 29.87"   Gusts: 29mph
Location:  44.46°N, 103.64°W
Report Text: KSPF 252255Z AUTO 30016G25KT 10SM SCT022 BKN041 00/M03 A2987 RMK AO2
Loading
Personal Weather Stations






























Interactive Weather Map New forecast layout! Learn more

10-Day Weather Forecast

Advertisements
Track Severe Weather on mobile